Weather at Licenciado Manuel Crescencio Rejon Int Airport

Public forecast

Using degrees Celsius for public forecast. Weather courtesy of forecast.io.

Current aviation weather report (METAR) for Licenciado Manuel Crescencio Rejon Int Airport

Retrieved 2021/01/19 08:45 UTC (1 hour ago):

MMMD 190845Z 05005KT 7SM SCT300 20/17 A3007 RMK SLP183 57007 967 8/008

Aviation forecast (TAF) for Licenciado Manuel Crescencio Rejon Int Airport

Retrieved 2021/01/19 06:42 UTC (3 hours ago):

TAF MMMD 190435Z 1906/2012 04005KT 6SM HZ SCT300 TX25/1921Z TN17/1912Z FM191800 03010KT 6SM HZ SCT030 BKN300 FM200300 03005KT 6SM HZ SCT300